| time (UTC) | temp C | wind direction | speed KPH | gust KPH | rain 1hr cm | rain 24hr cm | rain mn cm | humidity % | barometer mb |
| 20260507142306 | 11 | 270 | 3.2 | 6.4 | 0.00 | 0.00 | 0.00 | 39 | 1013.4 |
| 20260507140802 | 10 | 230 | 4.8 | 8.0 | 0.00 | 0.00 | 0.00 | 40 | 1013.3 |
| 20260507135301 | 10 | 268 | 3.2 | 4.8 | 0.00 | 0.00 | 0.00 | 41 | 1013.1 |
| 20260507133800 | 9 | 241 | 4.8 | 6.4 | 0.00 | 0.00 | 0.00 | 42 | 1013.2 |
| 20260507132259 | 8 | 63 | 0.0 | 4.8 | 0.00 | 0.00 | 0.00 | 42 | 1013.3 |
| 20260507130807 | 8 | 216 | 1.6 | 4.8 | 0.00 | 0.00 | 0.00 | 41 | 1013.4 |
| 20260507125258 | 8 | 225 | 1.6 | 3.2 | 0.00 | 0.00 | 0.00 | 40 | 1013.2 |
| 20260507123756 | 8 | 225 | 0.0 | 1.6 | 0.00 | 0.00 | 0.00 | 40 | 1013.1 |
| 20260507122256 | 8 | 158 | 1.6 | 4.8 | 0.00 | 0.00 | 0.00 | 40 | 1013.2 |
| 20260507120756 | 8 | 170 | 0.0 | 1.6 | 0.00 | 0.00 | 0.00 | 38 | 1013.2 |
| 20260507115256 | 8 | 270 | 0.0 | 1.6 | 0.00 | 0.00 | 0.00 | 37 | 1013.3 |
| 20260507113801 | 8 | 270 | 0.0 | 1.6 | 0.00 | 0.00 | 0.00 | 37 | 1013.2 |
| 20260507112256 | 7 | 130 | 0.0 | 0.0 | 0.00 | 0.00 | 0.00 | 36 | 1013.0 |
| 20260507110756 | 8 | 111 | 1.6 | 3.2 | 0.00 | 0.00 | 0.00 | 36 | 1012.9 |
| 20260507105256 | 8 | 45 | 0.0 | 1.6 | 0.00 | 0.00 | 0.00 | 35 | 1012.9 |
| 20260507103751 | 8 | 120 | 0.0 | 1.6 | 0.00 | 0.00 | 0.00 | 35 | 1012.7 |
| 20260507102250 | 8 | 225 | 0.0 | 1.6 | 0.00 | 0.00 | 0.00 | 35 | 1012.7 |
| 20260507100750 | 8 | 225 | 0.0 | 1.6 | 0.00 | 0.00 | 0.00 | 35 | 1012.6 |
| 20260507095250 | 8 | 270 | 0.0 | 0.0 | 0.00 | 0.00 | 0.00 | 35 | 1012.7 |
| 20260507093750 | 8 | 279 | 3.2 | 3.2 | 0.00 | 0.00 | 0.00 | 34 | 1012.6 |
| 20260507092250 | 8 | 45 | 1.6 | 4.8 | 0.00 | 0.00 | 0.00 | 34 | 1012.3 |
| 20260507090746 | 8 | 7 | 0.0 | 3.2 | 0.00 | 0.00 | 0.00 | 33 | 1012.3 |
| 20260507085246 | 8 | 137 | 1.6 | 4.8 | 0.00 | 0.00 | 0.00 | 33 | 1012.4 |
| 20260507083750 | 8 | 0 | 1.6 | 4.8 | 0.00 | 0.00 | 0.00 | 33 | 1012.3 |
| 20260507082245 | 8 | 315 | 0.0 | 6.4 | 0.00 | 0.00 | 0.00 | 34 | 1012.0 |
| 20260507080745 | 8 | 31 | 3.2 | 6.4 | 0.00 | 0.00 | 0.00 | 34 | 1011.8 |
| 20260507075245 | 8 | 0 | 0.0 | 4.8 | 0.00 | 0.00 | 0.00 | 34 | 1011.6 |
| 20260507073742 | 8 | 29 | 3.2 | 4.8 | 0.00 | 0.00 | 0.00 | 34 | 1011.5 |
| 20260507072244 | 8 | 46 | 0.0 | 3.2 | 0.00 | 0.00 | 0.00 | 34 | 1011.6 |
| 20260507070749 | 8 | 0 | 0.0 | 1.6 | 0.00 | 0.00 | 0.00 | 34 | 1011.6 |
| 20260507065239 | 8 | 83 | 4.8 | 12.9 | 0.00 | 0.00 | 0.00 | 37 | 1010.9 |
| 20260507063739 | 8 | 91 | 6.4 | 11.3 | 0.00 | 0.00 | 0.00 | 33 | 1011.1 |
| 20260507062238 | 8 | 125 | 9.7 | 12.9 | 0.00 | 0.00 | 0.00 | 31 | 1010.8 |
| 20260507060738 | 8 | 111 | 9.7 | 12.9 | 0.00 | 0.00 | 0.00 | 31 | 1011.1 |
| 20260507055239 | 8 | 58 | 3.2 | 11.3 | 0.00 | 0.00 | 0.00 | 32 | 1011.6 |
| 20260507053744 | 8 | 50 | 6.4 | 14.5 | 0.00 | 0.00 | 0.00 | 31 | 1011.6 |
| 20260507052235 | 8 | 90 | 11.3 | 22.5 | 0.00 | 0.00 | 0.00 | 31 | 1011.3 |
| 20260507050738 | 10 | 78 | 8.0 | 12.9 | 0.00 | 0.00 | 0.00 | 32 | 1011.9 |
| 20260507045233 | 10 | 67 | 8.0 | 11.3 | 0.00 | 0.00 | 0.00 | 25 | 1012.0 |
| 20260507043733 | 10 | 110 | 12.9 | 12.9 | 0.00 | 0.00 | 0.00 | 25 | 1011.7 |
| 20260507042233 | 10 | 131 | 6.4 | 11.3 | 0.00 | 0.00 | 0.00 | 24 | 1011.5 |
| 20260507040738 | 10 | 106 | 6.4 | 14.5 | 0.00 | 0.00 | 0.00 | 24 | 1011.9 |
| 20260507035233 | 10 | 97 | 6.4 | 12.9 | 0.00 | 0.00 | 0.00 | 25 | 1011.4 |
| 20260507033733 | 10 | 66 | 11.3 | 20.9 | 0.00 | 0.00 | 0.00 | 25 | 1011.3 |
| 20260507032229 | 11 | 78 | 14.5 | 20.9 | 0.00 | 0.00 | 0.00 | 25 | 1010.4 |
| 20260507030728 | 11 | 81 | 19.3 | 20.9 | 0.00 | 0.00 | 0.00 | 25 | 1010.5 |
| 20260507025228 | 11 | 104 | 14.5 | 19.3 | 0.00 | 0.00 | 0.00 | 23 | 1010.6 |
| 20260507023733 | 11 | 86 | 16.1 | 20.9 | 0.00 | 0.00 | 0.00 | 22 | 1010.2 |
| 20260507022226 | 12 | 89 | 25.7 | 25.7 | 0.00 | 0.00 | 0.00 | 22 | 1009.9 |
| 20260507020728 | 13 | 82 | 12.9 | 20.9 | 0.00 | 0.00 | 0.00 | 20 | 1010.4 |
| 20260507015227 | 13 | 89 | 4.8 | 14.5 | 0.00 | 0.00 | 0.00 | 20 | 1009.9 |
| 20260507013727 | 14 | 72 | 12.9 | 16.1 | 0.00 | 0.00 | 0.00 | 19 | 1009.7 |
| 20260507012223 | 15 | 48 | 9.7 | 16.1 | 0.00 | 0.00 | 0.00 | 19 | 1009.7 |
| 20260507010727 | 15 | 49 | 11.3 | 16.1 | 0.00 | 0.00 | 0.00 | 19 | 1009.8 |
| 20260507005222 | 15 | 53 | 6.4 | 14.5 | 0.00 | 0.00 | 0.00 | 19 | 1009.8 |
| 20260507003722 | 15 | 65 | 4.8 | 16.1 | 0.00 | 0.00 | 0.00 | 18 | 1009.9 |
| 20260507002222 | 16 | 90 | 9.7 | 19.3 | 0.00 | 0.00 | 0.00 | 18 | 1009.9 |
| 20260507000722 | 16 | 45 | 12.9 | 12.9 | 0.00 | 0.00 | 0.00 | 18 | 1009.8 |
| 20260506235222 | 16 | 18 | 11.3 | 11.3 | 0.00 | 0.00 | 0.00 | 18 | 1009.9 |
| 20260506233727 | 17 | 60 | 9.7 | 14.5 | 0.00 | 0.00 | 0.00 | 17 | 1010.0 |
| 20260506232216 | 17 | 48 | 9.7 | 11.3 | 0.00 | 0.00 | 0.00 | 17 | 1010.1 |
| 20260506230716 | 17 | 108 | 4.8 | 8.0 | 0.00 | 0.00 | 0.00 | 17 | 1010.1 |
| 20260506225216 | 18 | 15 | 8.0 | 12.9 | 0.00 | 0.00 | 0.00 | 16 | 1010.4 |
| 20260506223716 | 18 | 91 | 1.6 | 11.3 | 0.00 | 0.00 | 0.00 | 15 | 1010.5 |
| 20260506222216 | 18 | 128 | 6.4 | 8.0 | 0.00 | 0.00 | 0.00 | 15 | 1010.6 |
| 20260506220721 | 19 | 140 | 4.8 | 9.7 | 0.00 | 0.00 | 0.00 | 13 | 1010.8 |
| 20260506215216 | 21 | 87 | 6.4 | 8.0 | 0.00 | 0.00 | 0.00 | 12 | 1010.9 |
| 20260506213716 | 21 | 0 | 0.0 | 4.8 | 0.00 | 0.00 | 0.00 | 13 | 1011.1 |
| 20260506212211 | 20 | 332 | 1.6 | 6.4 | 0.00 | 0.00 | 0.00 | 13 | 1011.5 |
| 20260506210711 | 20 | 177 | 3.2 | 9.7 | 0.00 | 0.00 | 0.00 | 12 | 1011.6 |
| 20260506205211 | 21 | 110 | 3.2 | 9.7 | 0.00 | 0.00 | 0.00 | 12 | 1011.8 |
| 20260506203715 | 21 | 217 | 3.2 | 8.0 | 0.00 | 0.00 | 0.00 | 13 | 1011.9 |
| 20260506202210 | 21 | 124 | 4.8 | 9.7 | 0.00 | 0.00 | 0.00 | 12 | 1012.1 |
| 20260506200710 | 21 | 107 | 1.6 | 9.7 | 0.00 | 0.00 | 0.00 | 12 | 1012.3 |
| 20260506195210 | 21 | 153 | 4.8 | 11.3 | 0.00 | 0.00 | 0.00 | 13 | 1012.6 |
| 20260506193705 | 21 | 301 | 0.0 | 6.4 | 0.00 | 0.00 | 0.00 | 14 | 1012.8 |
| 20260506192205 | 20 | 179 | 4.8 | 4.8 | 0.00 | 0.00 | 0.00 | 14 | 1013.1 |
| 20260506190710 | 20 | 108 | 0.0 | 9.7 | 0.00 | 0.00 | 0.00 | 15 | 1013.3 |
| 20260506185205 | 19 | 9 | 4.8 | 6.4 | 0.00 | 0.00 | 0.00 | 16 | 1013.6 |
| 20260506183705 | 18 | 230 | 4.8 | 8.0 | 0.00 | 0.00 | 0.00 | 16 | 1013.9 |
| 20260506182204 | 18 | 174 | 1.6 | 9.7 | 0.00 | 0.00 | 0.00 | 15 | 1014.2 |
| 20260506180704 | 18 | 136 | 6.4 | 9.7 | 0.00 | 0.00 | 0.00 | 15 | 1014.2 |
| 20260506175204 | 18 | 144 | 8.0 | 8.0 | 0.00 | 0.00 | 0.00 | 17 | 1014.5 |
| 20260506173704 | 18 | 65 | 3.2 | 8.0 | 0.00 | 0.00 | 0.00 | 16 | 1014.7 |
| 20260506172159 | 17 | 148 | 6.4 | 9.7 | 0.00 | 0.00 | 0.00 | 16 | 1015.0 |
| 20260506170659 | 17 | 156 | 8.0 | 8.0 | 0.00 | 0.00 | 0.00 | 18 | 1015.3 |
| 20260506165157 | 17 | 131 | 4.8 | 6.4 | 0.00 | 0.00 | 0.00 | 20 | 1015.5 |
| 20260506163659 | 16 | 120 | 6.4 | 11.3 | 0.00 | 0.00 | 0.00 | 21 | 1015.7 |
| 20260506162156 | 15 | 152 | 4.8 | 9.7 | 0.00 | 0.00 | 0.00 | 22 | 1016.0 |
| 20260506160704 | 14 | 72 | 0.0 | 4.8 | 0.00 | 0.00 | 0.00 | 24 | 1016.3 |
| 20260506155158 | 13 | 70 | 1.6 | 4.8 | 0.00 | 0.00 | 0.00 | 26 | 1016.8 |
| 20260506153653 | 12 | 50 | 3.2 | 6.4 | 0.00 | 0.00 | 0.00 | 26 | 1016.9 |
| 20260506152153 | 11 | 128 | 3.2 | 4.8 | 0.00 | 0.00 | 0.00 | 28 | 1017.2 |
| 20260506150652 | 10 | 45 | 1.6 | 3.2 | 0.00 | 0.00 | 0.00 | 31 | 1017.5 |
| 20260506145202 | 8 | 132 | 1.6 | 3.2 | 0.00 | 0.00 | 0.00 | 33 | 1017.7 |
| 20260506143657 | 6 | 90 | 0.0 | 3.2 | 0.00 | 0.00 | 0.00 | 37 | 1018.0 |